sensor_id;sensor_type;location;lat;lon;timestamp;P1;durP1;ratioP1;P2;durP2;ratioP2
20894;SDS011;10607;42.066;24.742;2022-12-07T00:01:40;28.20;;;14.60;;
20894;SDS011;10607;42.066;24.742;2022-12-07T00:04:06;39.93;;;19.67;;
20894;SDS011;10607;42.066;24.742;2022-12-07T00:06:35;38.97;;;18.60;;
20894;SDS011;10607;42.066;24.742;2022-12-07T00:09:01;36.70;;;16.90;;
20894;SDS011;10607;42.066;24.742;2022-12-07T00:11:27;36.87;;;13.67;;
20894;SDS011;10607;42.066;24.742;2022-12-07T00:13:53;26.27;;;13.27;;
20894;SDS011;10607;42.066;24.742;2022-12-07T00:16:20;27.10;;;12.97;;
20894;SDS011;10607;42.066;24.742;2022-12-07T00:18:45;24.53;;;12.13;;
20894;SDS011;10607;42.066;24.742;2022-12-07T00:23:36;21.60;;;11.63;;
20894;SDS011;10607;42.066;24.742;2022-12-07T00:26:09;26.00;;;13.60;;
20894;SDS011;10607;42.066;24.742;2022-12-07T00:28:34;27.37;;;13.13;;
20894;SDS011;10607;42.066;24.742;2022-12-07T00:31:04;87.37;;;34.20;;
20894;SDS011;10607;42.066;24.742;2022-12-07T00:33:29;89.37;;;37.27;;
20894;SDS011;10607;42.066;24.742;2022-12-07T00:35:55;47.20;;;20.13;;
20894;SDS011;10607;42.066;24.742;2022-12-07T00:38:21;38.83;;;18.33;;
20894;SDS011;10607;42.066;24.742;2022-12-07T00:40:53;30.00;;;16.27;;
20894;SDS011;10607;42.066;24.742;2022-12-07T00:43:18;37.10;;;17.77;;
20894;SDS011;10607;42.066;24.742;2022-12-07T00:45:44;30.40;;;16.23;;
20894;SDS011;10607;42.066;24.742;2022-12-07T00:48:09;34.33;;;15.23;;
20894;SDS011;10607;42.066;24.742;2022-12-07T00:50:34;26.57;;;13.20;;
20894;SDS011;10607;42.066;24.742;2022-12-07T00:52:59;31.67;;;14.27;;
20894;SDS011;10607;42.066;24.742;2022-12-07T00:55:25;26.83;;;13.27;;
20894;SDS011;10607;42.066;24.742;2022-12-07T00:57:50;28.00;;;15.20;;
20894;SDS011;10607;42.066;24.742;2022-12-07T01:00:15;27.07;;;14.00;;
20894;SDS011;10607;42.066;24.742;2022-12-07T01:02:40;30.67;;;15.67;;
20894;SDS011;10607;42.066;24.742;2022-12-07T01:05:06;33.77;;;16.47;;
20894;SDS011;10607;42.066;24.742;2022-12-07T01:07:31;30.30;;;15.50;;
20894;SDS011;10607;42.066;24.742;2022-12-07T01:09:56;28.23;;;14.70;;
20894;SDS011;10607;42.066;24.742;2022-12-07T01:12:22;33.70;;;13.27;;
20894;SDS011;10607;42.066;24.742;2022-12-07T01:14:47;19.93;;;10.27;;
20894;SDS011;10607;42.066;24.742;2022-12-07T01:17:12;18.23;;;10.13;;
20894;SDS011;10607;42.066;24.742;2022-12-07T01:19:38;19.93;;;9.00;;
20894;SDS011;10607;42.066;24.742;2022-12-07T01:22:03;20.63;;;10.07;;
20894;SDS011;10607;42.066;24.742;2022-12-07T01:24:28;18.73;;;9.37;;
20894;SDS011;10607;42.066;24.742;2022-12-07T01:26:53;17.83;;;9.17;;
20894;SDS011;10607;42.066;24.742;2022-12-07T01:29:19;18.43;;;9.10;;
20894;SDS011;10607;42.066;24.742;2022-12-07T01:31:44;20.30;;;8.57;;
20894;SDS011;10607;42.066;24.742;2022-12-07T01:34:09;21.13;;;9.00;;
20894;SDS011;10607;42.066;24.742;2022-12-07T01:36:35;18.80;;;8.87;;
20894;SDS011;10607;42.066;24.742;2022-12-07T01:39:02;21.47;;;9.77;;
20894;SDS011;10607;42.066;24.742;2022-12-07T01:41:28;21.53;;;9.93;;
20894;SDS011;10607;42.066;24.742;2022-12-07T01:46:38;17.23;;;9.17;;
20894;SDS011;10607;42.066;24.742;2022-12-07T01:49:04;22.40;;;9.17;;
20894;SDS011;10607;42.066;24.742;2022-12-07T01:51:31;18.40;;;9.40;;
20894;SDS011;10607;42.066;24.742;2022-12-07T01:53:56;20.40;;;8.87;;
20894;SDS011;10607;42.066;24.742;2022-12-07T01:56:22;20.03;;;8.77;;
20894;SDS011;10607;42.066;24.742;2022-12-07T01:58:49;20.07;;;8.63;;
20894;SDS011;10607;42.066;24.742;2022-12-07T02:01:16;15.47;;;8.50;;
20894;SDS011;10607;42.066;24.742;2022-12-07T02:03:42;19.47;;;9.47;;
20894;SDS011;10607;42.066;24.742;2022-12-07T02:06:08;18.97;;;9.00;;
20894;SDS011;10607;42.066;24.742;2022-12-07T02:08:35;18.87;;;9.17;;
20894;SDS011;10607;42.066;24.742;2022-12-07T02:11:02;20.27;;;9.90;;
20894;SDS011;10607;42.066;24.742;2022-12-07T02:13:29;15.47;;;8.83;;
20894;SDS011;10607;42.066;24.742;2022-12-07T02:31:30;17.20;;;9.60;;
20894;SDS011;10607;42.066;24.742;2022-12-07T02:34:07;20.70;;;10.73;;
20894;SDS011;10607;42.066;24.742;2022-12-07T02:36:36;17.37;;;9.90;;
20894;SDS011;10607;42.066;24.742;2022-12-07T02:39:07;21.03;;;9.93;;
20894;SDS011;10607;42.066;24.742;2022-12-07T02:41:37;25.20;;;10.33;;
20894;SDS011;10607;42.066;24.742;2022-12-07T02:44:06;20.07;;;9.73;;
20894;SDS011;10607;42.066;24.742;2022-12-07T02:46:34;21.53;;;10.23;;
20894;SDS011;10607;42.066;24.742;2022-12-07T02:49:01;20.17;;;9.97;;
20894;SDS011;10607;42.066;24.742;2022-12-07T02:51:29;22.07;;;9.93;;
20894;SDS011;10607;42.066;24.742;2022-12-07T02:53:54;21.03;;;10.47;;
20894;SDS011;10607;42.066;24.742;2022-12-07T02:58:58;20.43;;;10.27;;
20894;SDS011;10607;42.066;24.742;2022-12-07T03:03:58;17.07;;;8.83;;
20894;SDS011;10607;42.066;24.742;2022-12-07T03:06:28;20.20;;;8.77;;
20894;SDS011;10607;42.066;24.742;2022-12-07T03:09:00;22.17;;;9.53;;
20894;SDS011;10607;42.066;24.742;2022-12-07T03:11:39;18.73;;;9.27;;
20894;SDS011;10607;42.066;24.742;2022-12-07T03:16:43;20.90;;;10.30;;
20894;SDS011;10607;42.066;24.742;2022-12-07T03:19:11;20.53;;;9.13;;
20894;SDS011;10607;42.066;24.742;2022-12-07T03:21:39;16.60;;;8.67;;
20894;SDS011;10607;42.066;24.742;2022-12-07T03:24:07;26.13;;;9.73;;
20894;SDS011;10607;42.066;24.742;2022-12-07T03:26:38;21.17;;;11.67;;
20894;SDS011;10607;42.066;24.742;2022-12-07T03:29:13;23.50;;;12.40;;
20894;SDS011;10607;42.066;24.742;2022-12-07T03:31:40;25.33;;;14.77;;
20894;SDS011;10607;42.066;24.742;2022-12-07T03:34:07;24.03;;;12.27;;
20894;SDS011;10607;42.066;24.742;2022-12-07T03:36:45;23.27;;;12.23;;
20894;SDS011;10607;42.066;24.742;2022-12-07T03:41:37;24.77;;;12.27;;
20894;SDS011;10607;42.066;24.742;2022-12-07T03:44:03;27.93;;;14.63;;
20894;SDS011;10607;42.066;24.742;2022-12-07T03:46:37;25.17;;;13.43;;
20894;SDS011;10607;42.066;24.742;2022-12-07T03:51:56;24.33;;;11.23;;
20894;SDS011;10607;42.066;24.742;2022-12-07T03:54:30;26.00;;;11.80;;
20894;SDS011;10607;42.066;24.742;2022-12-07T03:56:57;20.53;;;10.23;;
20894;SDS011;10607;42.066;24.742;2022-12-07T03:59:23;22.87;;;11.73;;
20894;SDS011;10607;42.066;24.742;2022-12-07T04:01:53;23.23;;;11.57;;
20894;SDS011;10607;42.066;24.742;2022-12-07T04:04:19;22.70;;;12.63;;
20894;SDS011;10607;42.066;24.742;2022-12-07T04:06:44;27.47;;;11.67;;
20894;SDS011;10607;42.066;24.742;2022-12-07T04:09:10;27.23;;;11.20;;
20894;SDS011;10607;42.066;24.742;2022-12-07T04:11:35;25.07;;;11.70;;
20894;SDS011;10607;42.066;24.742;2022-12-07T04:14:00;28.10;;;13.80;;
20894;SDS011;10607;42.066;24.742;2022-12-07T04:16:44;24.77;;;12.40;;
20894;SDS011;10607;42.066;24.742;2022-12-07T04:19:09;21.20;;;11.47;;
20894;SDS011;10607;42.066;24.742;2022-12-07T04:21:35;30.03;;;11.13;;
20894;SDS011;10607;42.066;24.742;2022-12-07T04:24:00;20.77;;;8.93;;
20894;SDS011;10607;42.066;24.742;2022-12-07T04:26:25;21.47;;;8.47;;
20894;SDS011;10607;42.066;24.742;2022-12-07T04:28:50;13.47;;;8.13;;
20894;SDS011;10607;42.066;24.742;2022-12-07T04:31:16;17.20;;;8.67;;
20894;SDS011;10607;42.066;24.742;2022-12-07T04:33:41;18.83;;;8.17;;
20894;SDS011;10607;42.066;24.742;2022-12-07T04:36:06;16.60;;;8.57;;
20894;SDS011;10607;42.066;24.742;2022-12-07T04:38:32;17.60;;;8.57;;
20894;SDS011;10607;42.066;24.742;2022-12-07T04:40:57;23.73;;;9.43;;
20894;SDS011;10607;42.066;24.742;2022-12-07T04:43:23;17.63;;;8.27;;
20894;SDS011;10607;42.066;24.742;2022-12-07T04:45:48;17.67;;;9.37;;
20894;SDS011;10607;42.066;24.742;2022-12-07T04:48:13;39.03;;;22.70;;
20894;SDS011;10607;42.066;24.742;2022-12-07T04:50:39;30.30;;;13.80;;
20894;SDS011;10607;42.066;24.742;2022-12-07T04:53:04;21.67;;;10.17;;
20894;SDS011;10607;42.066;24.742;2022-12-07T04:55:29;16.10;;;9.13;;
20894;SDS011;10607;42.066;24.742;2022-12-07T04:57:55;20.63;;;8.80;;
20894;SDS011;10607;42.066;24.742;2022-12-07T05:00:20;16.87;;;8.77;;
20894;SDS011;10607;42.066;24.742;2022-12-07T05:02:45;19.07;;;8.87;;
20894;SDS011;10607;42.066;24.742;2022-12-07T05:05:11;19.90;;;10.23;;
20894;SDS011;10607;42.066;24.742;2022-12-07T05:07:36;16.93;;;9.60;;
20894;SDS011;10607;42.066;24.742;2022-12-07T05:10:01;19.63;;;8.77;;
20894;SDS011;10607;42.066;24.742;2022-12-07T05:12:26;19.00;;;9.27;;
20894;SDS011;10607;42.066;24.742;2022-12-07T05:14:52;21.97;;;9.60;;
20894;SDS011;10607;42.066;24.742;2022-12-07T05:17:17;16.87;;;7.90;;
20894;SDS011;10607;42.066;24.742;2022-12-07T05:19:42;18.47;;;9.43;;
20894;SDS011;10607;42.066;24.742;2022-12-07T05:22:07;20.83;;;9.17;;
20894;SDS011;10607;42.066;24.742;2022-12-07T05:24:33;15.80;;;8.30;;
20894;SDS011;10607;42.066;24.742;2022-12-07T05:26:58;18.73;;;9.20;;
20894;SDS011;10607;42.066;24.742;2022-12-07T05:29:23;19.23;;;9.47;;
20894;SDS011;10607;42.066;24.742;2022-12-07T05:31:49;22.80;;;9.40;;
20894;SDS011;10607;42.066;24.742;2022-12-07T05:34:14;24.53;;;8.80;;
20894;SDS011;10607;42.066;24.742;2022-12-07T05:36:39;19.90;;;8.60;;
20894;SDS011;10607;42.066;24.742;2022-12-07T05:39:04;26.47;;;9.43;;
20894;SDS011;10607;42.066;24.742;2022-12-07T05:41:30;33.17;;;8.90;;
20894;SDS011;10607;42.066;24.742;2022-12-07T05:44:14;28.67;;;10.50;;
20894;SDS011;10607;42.066;24.742;2022-12-07T05:46:39;45.93;;;12.57;;
20894;SDS011;10607;42.066;24.742;2022-12-07T05:49:04;27.07;;;12.67;;
20894;SDS011;10607;42.066;24.742;2022-12-07T05:51:29;37.97;;;11.63;;
20894;SDS011;10607;42.066;24.742;2022-12-07T05:53:55;28.60;;;11.17;;
20894;SDS011;10607;42.066;24.742;2022-12-07T05:56:20;28.77;;;10.37;;
20894;SDS011;10607;42.066;24.742;2022-12-07T05:58:45;25.23;;;10.97;;
20894;SDS011;10607;42.066;24.742;2022-12-07T06:01:29;47.27;;;13.80;;
20894;SDS011;10607;42.066;24.742;2022-12-07T06:03:54;65.80;;;19.50;;
20894;SDS011;10607;42.066;24.742;2022-12-07T06:06:19;49.20;;;17.73;;
20894;SDS011;10607;42.066;24.742;2022-12-07T06:08:45;58.13;;;17.63;;
20894;SDS011;10607;42.066;24.742;2022-12-07T06:11:10;42.50;;;18.47;;
20894;SDS011;10607;42.066;24.742;2022-12-07T06:13:54;51.93;;;18.03;;
20894;SDS011;10607;42.066;24.742;2022-12-07T06:16:19;48.57;;;18.70;;
20894;SDS011;10607;42.066;24.742;2022-12-07T06:18:45;41.27;;;16.67;;
20894;SDS011;10607;42.066;24.742;2022-12-07T06:21:10;35.77;;;17.03;;
20894;SDS011;10607;42.066;24.742;2022-12-07T06:23:35;40.67;;;17.80;;
20894;SDS011;10607;42.066;24.742;2022-12-07T06:26:00;39.57;;;18.63;;
20894;SDS011;10607;42.066;24.742;2022-12-07T06:28:26;56.23;;;17.60;;
20894;SDS011;10607;42.066;24.742;2022-12-07T06:31:00;59.93;;;19.10;;
20894;SDS011;10607;42.066;24.742;2022-12-07T06:33:26;32.03;;;16.13;;
20894;SDS011;10607;42.066;24.742;2022-12-07T06:35:52;48.30;;;17.93;;
20894;SDS011;10607;42.066;24.742;2022-12-07T06:38:17;58.33;;;29.93;;
20894;SDS011;10607;42.066;24.742;2022-12-07T06:40:42;50.53;;;22.40;;
20894;SDS011;10607;42.066;24.742;2022-12-07T06:43:07;38.43;;;17.70;;
20894;SDS011;10607;42.066;24.742;2022-12-07T06:45:33;58.40;;;28.77;;
20894;SDS011;10607;42.066;24.742;2022-12-07T06:47:58;48.10;;;25.00;;
20894;SDS011;10607;42.066;24.742;2022-12-07T06:50:23;48.70;;;24.93;;
20894;SDS011;10607;42.066;24.742;2022-12-07T06:52:50;67.67;;;24.67;;
20894;SDS011;10607;42.066;24.742;2022-12-07T06:55:15;57.43;;;20.87;;
20894;SDS011;10607;42.066;24.742;2022-12-07T06:57:40;47.77;;;19.13;;
20894;SDS011;10607;42.066;24.742;2022-12-07T07:00:06;31.67;;;14.77;;
20894;SDS011;10607;42.066;24.742;2022-12-07T07:02:31;29.17;;;14.60;;
20894;SDS011;10607;42.066;24.742;2022-12-07T07:04:56;27.37;;;14.43;;
20894;SDS011;10607;42.066;24.742;2022-12-07T07:07:22;33.13;;;14.87;;
20894;SDS011;10607;42.066;24.742;2022-12-07T07:09:47;33.67;;;14.37;;
20894;SDS011;10607;42.066;24.742;2022-12-07T07:12:12;33.03;;;13.07;;
20894;SDS011;10607;42.066;24.742;2022-12-07T07:14:38;29.35;;;14.38;;
20894;SDS011;10607;42.066;24.742;2022-12-07T07:17:03;33.60;;;15.35;;
20894;SDS011;10607;42.066;24.742;2022-12-07T07:19:28;37.50;;;14.95;;
20894;SDS011;10607;42.066;24.742;2022-12-07T07:21:54;39.70;;;15.13;;
20894;SDS011;10607;42.066;24.742;2022-12-07T07:24:19;29.50;;;14.23;;
20894;SDS011;10607;42.066;24.742;2022-12-07T07:26:44;30.35;;;14.85;;
20894;SDS011;10607;42.066;24.742;2022-12-07T07:29:09;30.83;;;13.73;;
20894;SDS011;10607;42.066;24.742;2022-12-07T07:31:35;26.60;;;13.03;;
20894;SDS011;10607;42.066;24.742;2022-12-07T07:34:00;45.43;;;19.27;;
20894;SDS011;10607;42.066;24.742;2022-12-07T07:36:26;36.40;;;18.27;;
20894;SDS011;10607;42.066;24.742;2022-12-07T07:38:51;38.47;;;16.00;;
20894;SDS011;10607;42.066;24.742;2022-12-07T07:41:16;31.03;;;14.60;;
20894;SDS011;10607;42.066;24.742;2022-12-07T07:43:41;39.90;;;16.43;;
20894;SDS011;10607;42.066;24.742;2022-12-07T07:46:07;30.50;;;17.60;;
20894;SDS011;10607;42.066;24.742;2022-12-07T07:48:32;43.40;;;19.80;;
20894;SDS011;10607;42.066;24.742;2022-12-07T07:50:57;35.93;;;19.67;;
20894;SDS011;10607;42.066;24.742;2022-12-07T07:53:22;42.00;;;21.07;;
20894;SDS011;10607;42.066;24.742;2022-12-07T07:55:52;41.60;;;20.98;;
20894;SDS011;10607;42.066;24.742;2022-12-07T07:58:17;33.05;;;18.48;;
20894;SDS011;10607;42.066;24.742;2022-12-07T08:00:42;32.10;;;16.50;;
20894;SDS011;10607;42.066;24.742;2022-12-07T08:03:08;30.40;;;16.58;;
20894;SDS011;10607;42.066;24.742;2022-12-07T08:05:33;37.97;;;17.73;;
20894;SDS011;10607;42.066;24.742;2022-12-07T08:07:58;44.35;;;20.83;;
20894;SDS011;10607;42.066;24.742;2022-12-07T08:10:23;33.63;;;20.27;;
20894;SDS011;10607;42.066;24.742;2022-12-07T08:12:49;31.30;;;19.02;;
20894;SDS011;10607;42.066;24.742;2022-12-07T08:15:32;30.50;;;18.00;;
20894;SDS011;10607;42.066;24.742;2022-12-07T08:17:58;36.08;;;18.58;;
20894;SDS011;10607;42.066;24.742;2022-12-07T08:20:23;37.33;;;19.05;;
20894;SDS011;10607;42.066;24.742;2022-12-07T08:22:48;31.65;;;18.27;;
20894;SDS011;10607;42.066;24.742;2022-12-07T08:25:14;34.17;;;19.95;;
20894;SDS011;10607;42.066;24.742;2022-12-07T08:27:39;29.42;;;17.20;;
20894;SDS011;10607;42.066;24.742;2022-12-07T08:30:04;33.28;;;18.55;;
20894;SDS011;10607;42.066;24.742;2022-12-07T08:32:30;39.92;;;19.83;;
20894;SDS011;10607;42.066;24.742;2022-12-07T08:34:55;41.25;;;17.80;;
20894;SDS011;10607;42.066;24.742;2022-12-07T08:37:21;35.42;;;17.70;;
20894;SDS011;10607;42.066;24.742;2022-12-07T08:39:46;28.08;;;16.15;;
20894;SDS011;10607;42.066;24.742;2022-12-07T08:42:11;34.97;;;16.50;;
20894;SDS011;10607;42.066;24.742;2022-12-07T08:44:36;28.77;;;15.15;;
20894;SDS011;10607;42.066;24.742;2022-12-07T08:47:02;31.45;;;15.43;;
20894;SDS011;10607;42.066;24.742;2022-12-07T08:49:39;34.05;;;16.00;;
20894;SDS011;10607;42.066;24.742;2022-12-07T08:52:05;38.33;;;15.68;;
20894;SDS011;10607;42.066;24.742;2022-12-07T08:54:31;31.92;;;16.50;;
20894;SDS011;10607;42.066;24.742;2022-12-07T08:56:58;32.90;;;17.88;;
20894;SDS011;10607;42.066;24.742;2022-12-07T08:59:23;33.55;;;16.50;;
20894;SDS011;10607;42.066;24.742;2022-12-07T09:01:48;31.67;;;16.92;;
20894;SDS011;10607;42.066;24.742;2022-12-07T09:04:14;32.75;;;17.88;;
20894;SDS011;10607;42.066;24.742;2022-12-07T09:06:40;35.90;;;17.50;;
20894;SDS011;10607;42.066;24.742;2022-12-07T09:09:06;37.70;;;17.90;;
20894;SDS011;10607;42.066;24.742;2022-12-07T09:11:31;36.20;;;17.63;;
20894;SDS011;10607;42.066;24.742;2022-12-07T09:13:57;36.38;;;18.27;;
20894;SDS011;10607;42.066;24.742;2022-12-07T09:16:22;34.80;;;18.38;;
20894;SDS011;10607;42.066;24.742;2022-12-07T09:18:47;36.78;;;18.17;;
20894;SDS011;10607;42.066;24.742;2022-12-07T09:21:12;35.00;;;18.67;;
20894;SDS011;10607;42.066;24.742;2022-12-07T09:23:38;38.75;;;19.83;;
20894;SDS011;10607;42.066;24.742;2022-12-07T09:26:03;44.90;;;21.63;;
20894;SDS011;10607;42.066;24.742;2022-12-07T09:28:32;45.83;;;21.30;;
20894;SDS011;10607;42.066;24.742;2022-12-07T09:30:57;39.90;;;19.67;;
20894;SDS011;10607;42.066;24.742;2022-12-07T09:33:23;39.72;;;19.73;;
20894;SDS011;10607;42.066;24.742;2022-12-07T09:35:48;43.35;;;21.20;;
20894;SDS011;10607;42.066;24.742;2022-12-07T09:38:14;38.95;;;20.10;;
20894;SDS011;10607;42.066;24.742;2022-12-07T09:40:39;44.15;;;19.58;;
20894;SDS011;10607;42.066;24.742;2022-12-07T09:43:05;37.38;;;20.55;;
20894;SDS011;10607;42.066;24.742;2022-12-07T09:45:36;39.83;;;19.98;;
20894;SDS011;10607;42.066;24.742;2022-12-07T09:48:02;42.10;;;21.85;;
20894;SDS011;10607;42.066;24.742;2022-12-07T09:50:28;38.75;;;19.50;;
20894;SDS011;10607;42.066;24.742;2022-12-07T09:52:54;37.58;;;20.40;;
20894;SDS011;10607;42.066;24.742;2022-12-07T09:55:27;39.35;;;19.90;;
20894;SDS011;10607;42.066;24.742;2022-12-07T09:57:53;39.70;;;20.00;;
20894;SDS011;10607;42.066;24.742;2022-12-07T10:00:20;33.70;;;19.17;;
20894;SDS011;10607;42.066;24.742;2022-12-07T10:02:52;31.85;;;16.67;;
20894;SDS011;10607;42.066;24.742;2022-12-07T10:05:19;35.35;;;18.30;;
20894;SDS011;10607;42.066;24.742;2022-12-07T10:07:46;33.90;;;17.73;;
20894;SDS011;10607;42.066;24.742;2022-12-07T10:10:13;35.28;;;17.17;;
20894;SDS011;10607;42.066;24.742;2022-12-07T10:15:19;33.17;;;16.35;;
20894;SDS011;10607;42.066;24.742;2022-12-07T10:17:50;29.58;;;16.90;;
20894;SDS011;10607;42.066;24.742;2022-12-07T10:20:18;37.67;;;17.48;;
20894;SDS011;10607;42.066;24.742;2022-12-07T10:23:00;26.75;;;15.95;;
20894;SDS011;10607;42.066;24.742;2022-12-07T10:25:30;32.47;;;16.88;;
20894;SDS011;10607;42.066;24.742;2022-12-07T10:27:58;26.50;;;15.70;;
20894;SDS011;10607;42.066;24.742;2022-12-07T10:30:24;30.25;;;15.90;;
20894;SDS011;10607;42.066;24.742;2022-12-07T10:32:49;34.60;;;17.58;;
20894;SDS011;10607;42.066;24.742;2022-12-07T10:35:28;30.13;;;16.95;;
20894;SDS011;10607;42.066;24.742;2022-12-07T10:37:54;29.10;;;15.10;;
20894;SDS011;10607;42.066;24.742;2022-12-07T10:42:59;31.20;;;15.65;;
20894;SDS011;10607;42.066;24.742;2022-12-07T10:45:25;34.70;;;17.05;;
20894;SDS011;10607;42.066;24.742;2022-12-07T10:53:15;28.92;;;15.73;;
20894;SDS011;10607;42.066;24.742;2022-12-07T11:00:51;31.55;;;17.77;;
20894;SDS011;10607;42.066;24.742;2022-12-07T11:03:27;32.42;;;18.15;;
20894;SDS011;10607;42.066;24.742;2022-12-07T11:08:33;33.90;;;16.73;;
20894;SDS011;10607;42.066;24.742;2022-12-07T11:11:06;34.95;;;18.30;;
20894;SDS011;10607;42.066;24.742;2022-12-07T11:16:26;32.15;;;16.17;;
20894;SDS011;10607;42.066;24.742;2022-12-07T11:24:16;36.85;;;16.55;;
20894;SDS011;10607;42.066;24.742;2022-12-07T11:37:19;35.33;;;19.20;;
20894;SDS011;10607;42.066;24.742;2022-12-07T11:39:50;41.00;;;18.63;;
20894;SDS011;10607;42.066;24.742;2022-12-07T11:42:27;41.42;;;23.63;;
20894;SDS011;10607;42.066;24.742;2022-12-07T11:47:59;40.78;;;21.00;;
20894;SDS011;10607;42.066;24.742;2022-12-07T11:58:18;68.38;;;31.98;;
20894;SDS011;10607;42.066;24.742;2022-12-07T12:00:46;50.10;;;24.48;;
20894;SDS011;10607;42.066;24.742;2022-12-07T12:03:13;45.40;;;20.55;;
20894;SDS011;10607;42.066;24.742;2022-12-07T12:05:41;116.25;;;52.95;;
20894;SDS011;10607;42.066;24.742;2022-12-07T12:20:57;35.33;;;17.88;;
20894;SDS011;10607;42.066;24.742;2022-12-07T12:25:57;37.67;;;17.85;;
20894;SDS011;10607;42.066;24.742;2022-12-07T12:28:25;35.47;;;17.30;;
20894;SDS011;10607;42.066;24.742;2022-12-07T12:31:05;40.17;;;17.92;;
20894;SDS011;10607;42.066;24.742;2022-12-07T12:33:31;32.53;;;16.50;;
20894;SDS011;10607;42.066;24.742;2022-12-07T12:43:59;31.15;;;16.70;;
20894;SDS011;10607;42.066;24.742;2022-12-07T12:51:41;34.60;;;17.30;;
20894;SDS011;10607;42.066;24.742;2022-12-07T12:54:19;41.13;;;20.50;;
20894;SDS011;10607;42.066;24.742;2022-12-07T12:56:55;35.20;;;19.45;;
20894;SDS011;10607;42.066;24.742;2022-12-07T13:01:50;34.58;;;17.48;;
20894;SDS011;10607;42.066;24.742;2022-12-07T13:04:18;44.17;;;19.98;;
20894;SDS011;10607;42.066;24.742;2022-12-07T13:06:47;40.83;;;18.63;;
20894;SDS011;10607;42.066;24.742;2022-12-07T13:09:23;38.55;;;20.50;;
20894;SDS011;10607;42.066;24.742;2022-12-07T13:11:49;36.05;;;18.67;;
20894;SDS011;10607;42.066;24.742;2022-12-07T13:14:38;38.80;;;17.83;;
20894;SDS011;10607;42.066;24.742;2022-12-07T13:17:07;37.28;;;18.77;;
20894;SDS011;10607;42.066;24.742;2022-12-07T13:24:54;34.08;;;18.20;;
20894;SDS011;10607;42.066;24.742;2022-12-07T13:27:20;36.13;;;16.92;;
20894;SDS011;10607;42.066;24.742;2022-12-07T13:29:46;38.83;;;17.80;;
20894;SDS011;10607;42.066;24.742;2022-12-07T13:32:45;32.58;;;17.85;;
20894;SDS011;10607;42.066;24.742;2022-12-07T13:35:27;42.38;;;20.45;;
20894;SDS011;10607;42.066;24.742;2022-12-07T13:37:48;41.38;;;20.05;;
20894;SDS011;10607;42.066;24.742;2022-12-07T13:40:22;39.80;;;20.02;;
20894;SDS011;10607;42.066;24.742;2022-12-07T13:42:47;49.78;;;20.45;;
20894;SDS011;10607;42.066;24.742;2022-12-07T13:45:32;41.78;;;20.48;;
20894;SDS011;10607;42.066;24.742;2022-12-07T13:48:28;37.40;;;20.57;;
20894;SDS011;10607;42.066;24.742;2022-12-07T13:50:56;40.47;;;21.48;;
20894;SDS011;10607;42.066;24.742;2022-12-07T13:53:23;43.67;;;22.40;;
20894;SDS011;10607;42.066;24.742;2022-12-07T13:55:48;47.57;;;23.73;;
20894;SDS011;10607;42.066;24.742;2022-12-07T13:58:15;46.53;;;22.73;;
20894;SDS011;10607;42.066;24.742;2022-12-07T14:00:40;54.90;;;25.93;;
20894;SDS011;10607;42.066;24.742;2022-12-07T14:05:37;53.50;;;26.73;;
20894;SDS011;10607;42.066;24.742;2022-12-07T14:10:41;55.47;;;26.80;;
20894;SDS011;10607;42.066;24.742;2022-12-07T14:15:51;251.17;;;109.03;;
20894;SDS011;10607;42.066;24.742;2022-12-07T14:23:32;79.77;;;35.80;;
20894;SDS011;10607;42.066;24.742;2022-12-07T14:28:33;72.03;;;30.93;;
20894;SDS011;10607;42.066;24.742;2022-12-07T14:30:59;51.57;;;21.00;;
20894;SDS011;10607;42.066;24.742;2022-12-07T14:33:24;45.47;;;23.35;;
20894;SDS011;10607;42.066;24.742;2022-12-07T14:35:50;77.87;;;32.40;;
20894;SDS011;10607;42.066;24.742;2022-12-07T14:38:20;149.50;;;63.17;;
20894;SDS011;10607;42.066;24.742;2022-12-07T14:40:45;137.00;;;59.50;;
20894;SDS011;10607;42.066;24.742;2022-12-07T14:43:14;54.37;;;28.50;;
20894;SDS011;10607;42.066;24.742;2022-12-07T14:45:40;68.27;;;33.13;;
20894;SDS011;10607;42.066;24.742;2022-12-07T14:48:05;49.60;;;26.33;;
20894;SDS011;10607;42.066;24.742;2022-12-07T14:50:31;54.67;;;24.87;;
20894;SDS011;10607;42.066;24.742;2022-12-07T14:52:59;117.70;;;61.27;;
20894;SDS011;10607;42.066;24.742;2022-12-07T14:55:26;78.87;;;44.90;;
20894;SDS011;10607;42.066;24.742;2022-12-07T14:57:52;61.20;;;33.43;;
20894;SDS011;10607;42.066;24.742;2022-12-07T15:00:17;55.17;;;32.23;;
20894;SDS011;10607;42.066;24.742;2022-12-07T15:02:44;53.37;;;23.63;;
20894;SDS011;10607;42.066;24.742;2022-12-07T15:08:12;47.47;;;21.30;;
20894;SDS011;10607;42.066;24.742;2022-12-07T15:10:37;50.03;;;20.90;;
20894;SDS011;10607;42.066;24.742;2022-12-07T15:13:05;41.60;;;20.60;;
20894;SDS011;10607;42.066;24.742;2022-12-07T15:15:49;42.20;;;20.03;;
20894;SDS011;10607;42.066;24.742;2022-12-07T15:18:15;41.50;;;20.93;;
20894;SDS011;10607;42.066;24.742;2022-12-07T15:20:41;42.30;;;19.40;;
20894;SDS011;10607;42.066;24.742;2022-12-07T15:23:06;47.17;;;20.90;;
20894;SDS011;10607;42.066;24.742;2022-12-07T15:25:31;44.83;;;21.33;;
20894;SDS011;10607;42.066;24.742;2022-12-07T15:27:56;67.53;;;24.90;;
20894;SDS011;10607;42.066;24.742;2022-12-07T15:30:22;84.30;;;26.17;;
20894;SDS011;10607;42.066;24.742;2022-12-07T15:32:50;85.50;;;23.33;;
20894;SDS011;10607;42.066;24.742;2022-12-07T15:35:16;57.13;;;19.73;;
20894;SDS011;10607;42.066;24.742;2022-12-07T15:37:41;59.93;;;21.23;;
20894;SDS011;10607;42.066;24.742;2022-12-07T15:40:06;53.83;;;21.30;;
20894;SDS011;10607;42.066;24.742;2022-12-07T15:42:32;41.83;;;20.63;;
20894;SDS011;10607;42.066;24.742;2022-12-07T15:44:57;47.90;;;21.60;;
20894;SDS011;10607;42.066;24.742;2022-12-07T15:47:28;55.53;;;23.03;;
20894;SDS011;10607;42.066;24.742;2022-12-07T15:49:54;63.10;;;25.33;;
20894;SDS011;10607;42.066;24.742;2022-12-07T15:52:19;65.30;;;24.47;;
20894;SDS011;10607;42.066;24.742;2022-12-07T15:54:44;55.70;;;21.53;;
20894;SDS011;10607;42.066;24.742;2022-12-07T15:57:10;52.47;;;20.60;;
20894;SDS011;10607;42.066;24.742;2022-12-07T15:59:35;49.23;;;21.13;;
20894;SDS011;10607;42.066;24.742;2022-12-07T16:02:00;42.40;;;19.33;;
20894;SDS011;10607;42.066;24.742;2022-12-07T16:04:26;41.10;;;19.17;;
20894;SDS011;10607;42.066;24.742;2022-12-07T16:06:52;46.00;;;23.33;;
20894;SDS011;10607;42.066;24.742;2022-12-07T16:09:17;48.27;;;21.07;;
20894;SDS011;10607;42.066;24.742;2022-12-07T16:11:43;44.37;;;20.83;;
20894;SDS011;10607;42.066;24.742;2022-12-07T16:14:08;47.70;;;21.07;;
20894;SDS011;10607;42.066;24.742;2022-12-07T16:16:33;41.93;;;20.47;;
20894;SDS011;10607;42.066;24.742;2022-12-07T16:18:58;45.73;;;20.40;;
20894;SDS011;10607;42.066;24.742;2022-12-07T16:21:24;41.73;;;18.60;;
20894;SDS011;10607;42.066;24.742;2022-12-07T16:23:49;40.23;;;20.23;;
20894;SDS011;10607;42.066;24.742;2022-12-07T16:26:16;44.30;;;20.10;;
20894;SDS011;10607;42.066;24.742;2022-12-07T16:28:42;44.10;;;19.93;;